Dobbins Air Reserve Base Airport Marietta US
ICAO: KMGE
IATA: MGE
Category: Large
Scheduled Services: No

Elevation: 1068 ft
TransAlt. 18000 ft.

Airport Communications:
ATLANTA APP/DEP:121
ATIS:26.95
GND:125.3
NAVY OPS:34.02
ARNG OPS:47
PMSV METRO:27.475
94AW COMD POST:37.952
PTD:139.3
TWR:120.75

KMGE Zoom In..

If you have problems with the map follow the link
https://www.worldairports.se/pages/airport.php?
ICAO=KMGE

Runways:

(A) RW 11 length 10002 ft width 300 ft
ILS 109.70 / hdg 109

(B) RW 29 length 10002 ft width 300 ft
ILS 111.35 / hdg 289

Location; KMGE
Day. 13 / Time. 00.26 Zulu
* Altimeter: 30.34
* Temperature: 07° c. 44.6°f.
* Wind from: 110° Speed 12 kn with Gusts up to 18 kn.
Dewpoint: 00° c.
Visibility: 7 Statute Miles.
Clouds: Broken 2600 ft.
Clouds: Overcast 3000 ft.
Conditions: Light Rain.

KMGE 130026Z 11012G18KT 7SM -RA BKN026 OVC030 07/00 A3034 RMK AO2A $


Wind From 110°
Speed 12 kn.

 
 
jpsmedia worldairports.se 2019   terms of use